| Pilot: | GLD1793 Tiago I. | Aircraft: | ATCCOM.ATC_NAME_BEECHCR | Distance: | 37NM |
| From: | MYLS | To: | MYEF | Duration: | 0.32 |
| Validation: | Valid | Tipo: | Charter | Tail Number: | PT-GLD |
| ZFW: | 4324 | Block Fuel/Init FOB | 183flight_details.php/164 | Flight Fuel | 183 |
| Passengers: | 5 | Cargo: | 0 | Alternate: | MUCC |
| Departure Time: | 1801 | Cruise Speed: | 195 | Flight Level: | FL400 |
| Flight Type: | IFR | Aircraft Type: | BE58 | Weight Unit: | Kg |
| Date: | 03/05/2026 | Comments: | GOLD ACARS | Network: | VATSIM |
| Crash: | No | Validator Comments: | Rating | 100 |
| ROUTE | DCT WUPUB |
| REMARKS | OPR/GOLD VIRTUAL AIRLINES PER/C RMK/FROM MYLS RMK/PIC GLD1793 |
| Crash | OK | Beacon Lights off with engine on | OK | Speed above 250KIAS below 10.000ft | OK |
| Landing Lights OFF below 10.000ft | OK | Landing Lights ON above 10.000ft | OK | Stall | OK |
| Overspeed | OK | Pause | OK | Refuel | OK |
| Slew | OK | Taxi Lights OFF during taxi | OK | Land Lights OFF during take off | OK |
| Landing Lights OFF during landing | OK | Landed in not planned airfield | OK | Taxi speed above 25 kt | OK |
| Incorrect QNH during take off | OK | Incorrect QNH during landing | OK |
| Wind: | 235º/5 kt | Heading: | 286 |
| VS: | -108 ft/min | IAS: | 88 kt |
| Gforce: | 1.1056 G | Bank: | 3.64 |
| Pitch | 4.95 | Flaps | 50 |
| Nav Lights | ON | Landing Lights | ON |
| Beacon Lights | ON | Strobe Lights | ON |
| DATE | EVENT | IAS | ALTITUDE |
|---|---|---|---|
| 2026-05-03 18:01:40 | GOLD ACARS VERSION 3.3.7.0 | 0 | 0 |
| 2026-05-03 18:01:40 | BOARDING | 0 | 19 |
| 2026-05-03 18:01:44 | BCN LIGHTS ON | 0 | 19 |
| 2026-05-03 18:01:45 | NAV LIGHTS ON | 0 | 19 |
| 2026-05-03 18:01:47 | STB LIGHTS ON | 0 | 19 |
| 2026-05-03 18:01:47 | TAXI LIGHTS ON | 0 | 19 |
| 2026-05-03 18:01:48 | LND LIGHTS ON | 0 | 19 |
| 2026-05-03 18:01:57 | STARTING ENGINE 1 | 0 | 19 |
| 2026-05-03 18:02:08 | STARTING ENGINE 2 | 0 | 19 |
| 2026-05-03 18:02:53 | TAXI TO THE RWY | 0 | 19 |
| 2026-05-03 18:03:25 | FLAP 50% | 0 | 23 |
| 2026-05-03 18:03:55 | CLIMBING | 107 | 48 |
| 2026-05-03 18:03:58 | CRUISE | 102 | 70 |
| 2026-05-03 18:04:01 | CLIMBING | 96 | 84 |
| 2026-05-03 18:04:05 | CRUISE | 93 | 136 |
| 2026-05-03 18:04:09 | CLIMBING | 103 | 136 |
| 2026-05-03 18:04:21 | GEAR UP | 106 | 423 |
| 2026-05-03 18:04:26 | FLAP 0% | 108 | 563 |
| 2026-05-03 18:04:54 | AP ENGAGED | 115 | 1433 |
| 2026-05-03 18:05:01 | CRUISE | 129 | 1565 |
| 2026-05-03 18:05:21 | LANDING | 180 | 1476 |
| 2026-05-03 18:05:40 | CLIMBING | 194 | 1367 |
| 2026-05-03 18:06:44 | CRUISE | 152 | 2980 |
| 2026-05-03 18:13:16 | DESCEND | 135 | 2965 |
| 2026-05-03 18:15:55 | FLAP 50% | 150 | 848 |
| 2026-05-03 18:16:06 | GEAR DOWN | 140 | 718 |
| 2026-05-03 18:17:05 | AP DISENGAGED | 110 | 83 |
| 2026-05-03 18:17:21 | LANDED AIRPORT [MYEF] | 88 | 34 |
| 2026-05-03 18:17:21 | LANDED - VS: -108 ft/min | 87 | 33 |
| 2026-05-03 18:17:43 | TAXI TO THE GATE | 29 | 27 |
| 2026-05-03 18:20:34 | AT THE GATE | 0 | 32 |
| 2026-05-03 18:20:42 | STOPPING ENGINE 1 | 0 | 32 |
| 2026-05-03 18:20:44 | STOPPING ENGINE 2 | 0 | 32 |
| 2026-05-03 18:20:51 | BCN LIGHTS OFF | 0 | 32 |
| 2026-05-03 18:20:52 | FLIGHT FINISHED | 0 | 32 |
| 2026-05-03 18:01:40 | GOLD ACARS VERSION 3.3.7.0 | 0 | 0 |
| 2026-05-03 18:01:40 | BOARDING | 0 | 19 |
| 2026-05-03 18:01:44 | BCN LIGHTS ON | 0 | 19 |
| 2026-05-03 18:01:45 | NAV LIGHTS ON | 0 | 19 |
| 2026-05-03 18:01:47 | STB LIGHTS ON | 0 | 19 |
| 2026-05-03 18:01:47 | TAXI LIGHTS ON | 0 | 19 |
| 2026-05-03 18:01:48 | LND LIGHTS ON | 0 | 19 |
| 2026-05-03 18:01:57 | STARTING ENGINE 1 | 0 | 19 |
| 2026-05-03 18:02:08 | STARTING ENGINE 2 | 0 | 19 |
| 2026-05-03 18:02:53 | TAXI TO THE RWY | 0 | 19 |
| 2026-05-03 18:03:25 | FLAP 50% | 0 | 23 |
| 2026-05-03 18:03:55 | CLIMBING | 107 | 48 |
| 2026-05-03 18:03:58 | CRUISE | 102 | 70 |
| 2026-05-03 18:04:01 | CLIMBING | 96 | 84 |
| 2026-05-03 18:04:05 | CRUISE | 93 | 136 |
| 2026-05-03 18:04:09 | CLIMBING | 103 | 136 |
| 2026-05-03 18:04:21 | GEAR UP | 106 | 423 |
| 2026-05-03 18:04:26 | FLAP 0% | 108 | 563 |
| 2026-05-03 18:04:54 | AP ENGAGED | 115 | 1433 |
| 2026-05-03 18:05:01 | CRUISE | 129 | 1565 |
| 2026-05-03 18:05:21 | LANDING | 180 | 1476 |
| 2026-05-03 18:05:40 | CLIMBING | 194 | 1367 |
| 2026-05-03 18:06:44 | CRUISE | 152 | 2980 |
| 2026-05-03 18:13:16 | DESCEND | 135 | 2965 |
| 2026-05-03 18:15:55 | FLAP 50% | 150 | 848 |
| 2026-05-03 18:16:06 | GEAR DOWN | 140 | 718 |
| 2026-05-03 18:17:05 | AP DISENGAGED | 110 | 83 |
| 2026-05-03 18:17:21 | LANDED AIRPORT [MYEF] | 88 | 34 |
| 2026-05-03 18:17:21 | LANDED - VS: -108 ft/min | 87 | 33 |
| 2026-05-03 18:17:43 | TAXI TO THE GATE | 29 | 27 |
| 2026-05-03 18:20:34 | AT THE GATE | 0 | 32 |
| 2026-05-03 18:20:42 | STOPPING ENGINE 1 | 0 | 32 |
| 2026-05-03 18:20:44 | STOPPING ENGINE 2 | 0 | 32 |
| 2026-05-03 18:20:51 | BCN LIGHTS OFF | 0 | 32 |
| 2026-05-03 18:20:52 | FLIGHT FINISHED | 0 | 32 |
| 2026-05-03 18:21:55 | NAV LIGHTS OFF | 0 | 32 |
| 2026-05-03 18:21:56 | TAXI LIGHTS OFF | 0 | 32 |
| 2026-05-03 18:21:56 | STB LIGHTS OFF | 0 | 32 |
| 2026-05-03 18:21:57 | LND LIGHTS OFF | 0 | 32 |
| 2026-05-03 18:01:40 | GOLD ACARS VERSION 3.3.7.0 | 0 | 0 |
| 2026-05-03 18:01:40 | BOARDING | 0 | 19 |
| 2026-05-03 18:01:44 | BCN LIGHTS ON | 0 | 19 |
| 2026-05-03 18:01:45 | NAV LIGHTS ON | 0 | 19 |
| 2026-05-03 18:01:47 | STB LIGHTS ON | 0 | 19 |
| 2026-05-03 18:01:47 | TAXI LIGHTS ON | 0 | 19 |
| 2026-05-03 18:01:48 | LND LIGHTS ON | 0 | 19 |
| 2026-05-03 18:01:57 | STARTING ENGINE 1 | 0 | 19 |
| 2026-05-03 18:02:08 | STARTING ENGINE 2 | 0 | 19 |
| 2026-05-03 18:02:53 | TAXI TO THE RWY | 0 | 19 |
| 2026-05-03 18:03:25 | FLAP 50% | 0 | 23 |
| 2026-05-03 18:03:55 | CLIMBING | 107 | 48 |
| 2026-05-03 18:03:58 | CRUISE | 102 | 70 |
| 2026-05-03 18:04:01 | CLIMBING | 96 | 84 |
| 2026-05-03 18:04:05 | CRUISE | 93 | 136 |
| 2026-05-03 18:04:09 | CLIMBING | 103 | 136 |
| 2026-05-03 18:04:21 | GEAR UP | 106 | 423 |
| 2026-05-03 18:04:26 | FLAP 0% | 108 | 563 |
| 2026-05-03 18:04:54 | AP ENGAGED | 115 | 1433 |
| 2026-05-03 18:05:01 | CRUISE | 129 | 1565 |
| 2026-05-03 18:05:21 | LANDING | 180 | 1476 |
| 2026-05-03 18:05:40 | CLIMBING | 194 | 1367 |
| 2026-05-03 18:06:44 | CRUISE | 152 | 2980 |
| 2026-05-03 18:13:16 | DESCEND | 135 | 2965 |
| 2026-05-03 18:15:55 | FLAP 50% | 150 | 848 |
| 2026-05-03 18:16:06 | GEAR DOWN | 140 | 718 |
| 2026-05-03 18:17:05 | AP DISENGAGED | 110 | 83 |
| 2026-05-03 18:17:21 | LANDED AIRPORT [MYEF] | 88 | 34 |
| 2026-05-03 18:17:21 | LANDED - VS: -108 ft/min | 87 | 33 |
| 2026-05-03 18:17:43 | TAXI TO THE GATE | 29 | 27 |
| 2026-05-03 18:20:34 | AT THE GATE | 0 | 32 |
| 2026-05-03 18:20:42 | STOPPING ENGINE 1 | 0 | 32 |
| 2026-05-03 18:20:44 | STOPPING ENGINE 2 | 0 | 32 |
| 2026-05-03 18:20:51 | BCN LIGHTS OFF | 0 | 32 |
| 2026-05-03 18:20:52 | FLIGHT FINISHED | 0 | 32 |
| 2026-05-03 18:21:55 | NAV LIGHTS OFF | 0 | 32 |
| 2026-05-03 18:21:56 | TAXI LIGHTS OFF | 0 | 32 |
| 2026-05-03 18:21:56 | STB LIGHTS OFF | 0 | 32 |
| 2026-05-03 18:21:57 | LND LIGHTS OFF | 0 | 32 |
| 2026-05-03 18:01:40 | GOLD ACARS VERSION 3.3.7.0 | 0 | 0 |
| 2026-05-03 18:01:40 | BOARDING | 0 | 19 |
| 2026-05-03 18:01:44 | BCN LIGHTS ON | 0 | 19 |
| 2026-05-03 18:01:45 | NAV LIGHTS ON | 0 | 19 |
| 2026-05-03 18:01:47 | STB LIGHTS ON | 0 | 19 |
| 2026-05-03 18:01:47 | TAXI LIGHTS ON | 0 | 19 |
| 2026-05-03 18:01:48 | LND LIGHTS ON | 0 | 19 |
| 2026-05-03 18:01:57 | STARTING ENGINE 1 | 0 | 19 |
| 2026-05-03 18:02:08 | STARTING ENGINE 2 | 0 | 19 |
| 2026-05-03 18:02:53 | TAXI TO THE RWY | 0 | 19 |
| 2026-05-03 18:03:25 | FLAP 50% | 0 | 23 |
| 2026-05-03 18:03:55 | CLIMBING | 107 | 48 |
| 2026-05-03 18:03:58 | CRUISE | 102 | 70 |
| 2026-05-03 18:04:01 | CLIMBING | 96 | 84 |
| 2026-05-03 18:04:05 | CRUISE | 93 | 136 |
| 2026-05-03 18:04:09 | CLIMBING | 103 | 136 |
| 2026-05-03 18:04:21 | GEAR UP | 106 | 423 |
| 2026-05-03 18:04:26 | FLAP 0% | 108 | 563 |
| 2026-05-03 18:04:54 | AP ENGAGED | 115 | 1433 |
| 2026-05-03 18:05:01 | CRUISE | 129 | 1565 |
| 2026-05-03 18:05:21 | LANDING | 180 | 1476 |
| 2026-05-03 18:05:40 | CLIMBING | 194 | 1367 |
| 2026-05-03 18:06:44 | CRUISE | 152 | 2980 |
| 2026-05-03 18:13:16 | DESCEND | 135 | 2965 |
| 2026-05-03 18:15:55 | FLAP 50% | 150 | 848 |
| 2026-05-03 18:16:06 | GEAR DOWN | 140 | 718 |
| 2026-05-03 18:17:05 | AP DISENGAGED | 110 | 83 |
| 2026-05-03 18:17:21 | LANDED AIRPORT [MYEF] | 88 | 34 |
| 2026-05-03 18:17:21 | LANDED - VS: -108 ft/min | 87 | 33 |
| 2026-05-03 18:17:43 | TAXI TO THE GATE | 29 | 27 |
| 2026-05-03 18:20:34 | AT THE GATE | 0 | 32 |
| 2026-05-03 18:20:42 | STOPPING ENGINE 1 | 0 | 32 |
| 2026-05-03 18:20:44 | STOPPING ENGINE 2 | 0 | 32 |
| 2026-05-03 18:20:51 | BCN LIGHTS OFF | 0 | 32 |
| 2026-05-03 18:20:52 | FLIGHT FINISHED | 0 | 32 |
| 2026-05-03 18:21:55 | NAV LIGHTS OFF | 0 | 32 |
| 2026-05-03 18:21:56 | TAXI LIGHTS OFF | 0 | 32 |
| 2026-05-03 18:21:56 | STB LIGHTS OFF | 0 | 32 |
| 2026-05-03 18:21:57 | LND LIGHTS OFF | 0 | 32 |
| 2026-05-03 18:01:40 | GOLD ACARS VERSION 3.3.7.0 | 0 | 0 |
| 2026-05-03 18:01:40 | BOARDING | 0 | 19 |
| 2026-05-03 18:01:44 | BCN LIGHTS ON | 0 | 19 |
| 2026-05-03 18:01:45 | NAV LIGHTS ON | 0 | 19 |
| 2026-05-03 18:01:47 | STB LIGHTS ON | 0 | 19 |
| 2026-05-03 18:01:47 | TAXI LIGHTS ON | 0 | 19 |
| 2026-05-03 18:01:48 | LND LIGHTS ON | 0 | 19 |
| 2026-05-03 18:01:57 | STARTING ENGINE 1 | 0 | 19 |
| 2026-05-03 18:02:08 | STARTING ENGINE 2 | 0 | 19 |
| 2026-05-03 18:02:53 | TAXI TO THE RWY | 0 | 19 |
| 2026-05-03 18:03:25 | FLAP 50% | 0 | 23 |
| 2026-05-03 18:03:55 | CLIMBING | 107 | 48 |
| 2026-05-03 18:03:58 | CRUISE | 102 | 70 |
| 2026-05-03 18:04:01 | CLIMBING | 96 | 84 |
| 2026-05-03 18:04:05 | CRUISE | 93 | 136 |
| 2026-05-03 18:04:09 | CLIMBING | 103 | 136 |
| 2026-05-03 18:04:21 | GEAR UP | 106 | 423 |
| 2026-05-03 18:04:26 | FLAP 0% | 108 | 563 |
| 2026-05-03 18:04:54 | AP ENGAGED | 115 | 1433 |
| 2026-05-03 18:05:01 | CRUISE | 129 | 1565 |
| 2026-05-03 18:05:21 | LANDING | 180 | 1476 |
| 2026-05-03 18:05:40 | CLIMBING | 194 | 1367 |
| 2026-05-03 18:06:44 | CRUISE | 152 | 2980 |
| 2026-05-03 18:13:16 | DESCEND | 135 | 2965 |
| 2026-05-03 18:15:55 | FLAP 50% | 150 | 848 |
| 2026-05-03 18:16:06 | GEAR DOWN | 140 | 718 |
| 2026-05-03 18:17:05 | AP DISENGAGED | 110 | 83 |
| 2026-05-03 18:17:21 | LANDED AIRPORT [MYEF] | 88 | 34 |
| 2026-05-03 18:17:21 | LANDED - VS: -108 ft/min | 87 | 33 |
| 2026-05-03 18:17:43 | TAXI TO THE GATE | 29 | 27 |
| 2026-05-03 18:20:34 | AT THE GATE | 0 | 32 |
| 2026-05-03 18:20:42 | STOPPING ENGINE 1 | 0 | 32 |
| 2026-05-03 18:20:44 | STOPPING ENGINE 2 | 0 | 32 |
| 2026-05-03 18:20:51 | BCN LIGHTS OFF | 0 | 32 |
| 2026-05-03 18:20:52 | FLIGHT FINISHED | 0 | 32 |
| 2026-05-03 18:21:55 | NAV LIGHTS OFF | 0 | 32 |
| 2026-05-03 18:21:56 | TAXI LIGHTS OFF | 0 | 32 |
| 2026-05-03 18:21:56 | STB LIGHTS OFF | 0 | 32 |
| 2026-05-03 18:21:57 | LND LIGHTS OFF | 0 | 32 |
| 2026-05-03 18:01:40 | GOLD ACARS VERSION 3.3.7.0 | 0 | 0 |
| 2026-05-03 18:01:40 | BOARDING | 0 | 19 |
| 2026-05-03 18:01:44 | BCN LIGHTS ON | 0 | 19 |
| 2026-05-03 18:01:45 | NAV LIGHTS ON | 0 | 19 |
| 2026-05-03 18:01:47 | STB LIGHTS ON | 0 | 19 |
| 2026-05-03 18:01:47 | TAXI LIGHTS ON | 0 | 19 |
| 2026-05-03 18:01:48 | LND LIGHTS ON | 0 | 19 |
| 2026-05-03 18:01:57 | STARTING ENGINE 1 | 0 | 19 |
| 2026-05-03 18:02:08 | STARTING ENGINE 2 | 0 | 19 |
| 2026-05-03 18:02:53 | TAXI TO THE RWY | 0 | 19 |
| 2026-05-03 18:03:25 | FLAP 50% | 0 | 23 |
| 2026-05-03 18:03:55 | CLIMBING | 107 | 48 |
| 2026-05-03 18:03:58 | CRUISE | 102 | 70 |
| 2026-05-03 18:04:01 | CLIMBING | 96 | 84 |
| 2026-05-03 18:04:05 | CRUISE | 93 | 136 |
| 2026-05-03 18:04:09 | CLIMBING | 103 | 136 |
| 2026-05-03 18:04:21 | GEAR UP | 106 | 423 |
| 2026-05-03 18:04:26 | FLAP 0% | 108 | 563 |
| 2026-05-03 18:04:54 | AP ENGAGED | 115 | 1433 |
| 2026-05-03 18:05:01 | CRUISE | 129 | 1565 |
| 2026-05-03 18:05:21 | LANDING | 180 | 1476 |
| 2026-05-03 18:05:40 | CLIMBING | 194 | 1367 |
| 2026-05-03 18:06:44 | CRUISE | 152 | 2980 |
| 2026-05-03 18:13:16 | DESCEND | 135 | 2965 |
| 2026-05-03 18:15:55 | FLAP 50% | 150 | 848 |
| 2026-05-03 18:16:06 | GEAR DOWN | 140 | 718 |
| 2026-05-03 18:17:05 | AP DISENGAGED | 110 | 83 |
| 2026-05-03 18:17:21 | LANDED AIRPORT [MYEF] | 88 | 34 |
| 2026-05-03 18:17:21 | LANDED - VS: -108 ft/min | 87 | 33 |
| 2026-05-03 18:17:43 | TAXI TO THE GATE | 29 | 27 |
| 2026-05-03 18:20:34 | AT THE GATE | 0 | 32 |
| 2026-05-03 18:20:42 | STOPPING ENGINE 1 | 0 | 32 |
| 2026-05-03 18:20:44 | STOPPING ENGINE 2 | 0 | 32 |
| 2026-05-03 18:20:51 | BCN LIGHTS OFF | 0 | 32 |
| 2026-05-03 18:20:52 | FLIGHT FINISHED | 0 | 32 |
| 2026-05-03 18:21:55 | NAV LIGHTS OFF | 0 | 32 |
| 2026-05-03 18:21:56 | TAXI LIGHTS OFF | 0 | 32 |
| 2026-05-03 18:21:56 | STB LIGHTS OFF | 0 | 32 |
| 2026-05-03 18:21:57 | LND LIGHTS OFF | 0 | 32 |
| 2026-05-03 18:01:40 | GOLD ACARS VERSION 3.3.7.0 | 0 | 0 |
| 2026-05-03 18:01:40 | BOARDING | 0 | 19 |
| 2026-05-03 18:01:44 | BCN LIGHTS ON | 0 | 19 |
| 2026-05-03 18:01:45 | NAV LIGHTS ON | 0 | 19 |
| 2026-05-03 18:01:47 | STB LIGHTS ON | 0 | 19 |
| 2026-05-03 18:01:47 | TAXI LIGHTS ON | 0 | 19 |
| 2026-05-03 18:01:48 | LND LIGHTS ON | 0 | 19 |
| 2026-05-03 18:01:57 | STARTING ENGINE 1 | 0 | 19 |
| 2026-05-03 18:02:08 | STARTING ENGINE 2 | 0 | 19 |
| 2026-05-03 18:02:53 | TAXI TO THE RWY | 0 | 19 |
| 2026-05-03 18:03:25 | FLAP 50% | 0 | 23 |
| 2026-05-03 18:03:55 | CLIMBING | 107 | 48 |
| 2026-05-03 18:03:58 | CRUISE | 102 | 70 |
| 2026-05-03 18:04:01 | CLIMBING | 96 | 84 |
| 2026-05-03 18:04:05 | CRUISE | 93 | 136 |
| 2026-05-03 18:04:09 | CLIMBING | 103 | 136 |
| 2026-05-03 18:04:21 | GEAR UP | 106 | 423 |
| 2026-05-03 18:04:26 | FLAP 0% | 108 | 563 |
| 2026-05-03 18:04:54 | AP ENGAGED | 115 | 1433 |
| 2026-05-03 18:05:01 | CRUISE | 129 | 1565 |
| 2026-05-03 18:05:21 | LANDING | 180 | 1476 |
| 2026-05-03 18:05:40 | CLIMBING | 194 | 1367 |
| 2026-05-03 18:06:44 | CRUISE | 152 | 2980 |
| 2026-05-03 18:13:16 | DESCEND | 135 | 2965 |
| 2026-05-03 18:15:55 | FLAP 50% | 150 | 848 |
| 2026-05-03 18:16:06 | GEAR DOWN | 140 | 718 |
| 2026-05-03 18:17:05 | AP DISENGAGED | 110 | 83 |
| 2026-05-03 18:17:21 | LANDED AIRPORT [MYEF] | 88 | 34 |
| 2026-05-03 18:17:21 | LANDED - VS: -108 ft/min | 87 | 33 |
| 2026-05-03 18:17:43 | TAXI TO THE GATE | 29 | 27 |
| 2026-05-03 18:20:34 | AT THE GATE | 0 | 32 |
| 2026-05-03 18:20:42 | STOPPING ENGINE 1 | 0 | 32 |
| 2026-05-03 18:20:44 | STOPPING ENGINE 2 | 0 | 32 |
| 2026-05-03 18:20:51 | BCN LIGHTS OFF | 0 | 32 |
| 2026-05-03 18:20:52 | FLIGHT FINISHED | 0 | 32 |
| 2026-05-03 18:21:55 | NAV LIGHTS OFF | 0 | 32 |
| 2026-05-03 18:21:56 | TAXI LIGHTS OFF | 0 | 32 |
| 2026-05-03 18:21:56 | STB LIGHTS OFF | 0 | 32 |
| 2026-05-03 18:21:57 | LND LIGHTS OFF | 0 | 32 |
| 2026-05-03 18:01:40 | GOLD ACARS VERSION 3.3.7.0 | 0 | 0 |
| 2026-05-03 18:01:40 | BOARDING | 0 | 19 |
| 2026-05-03 18:01:44 | BCN LIGHTS ON | 0 | 19 |
| 2026-05-03 18:01:45 | NAV LIGHTS ON | 0 | 19 |
| 2026-05-03 18:01:47 | STB LIGHTS ON | 0 | 19 |
| 2026-05-03 18:01:47 | TAXI LIGHTS ON | 0 | 19 |
| 2026-05-03 18:01:48 | LND LIGHTS ON | 0 | 19 |
| 2026-05-03 18:01:57 | STARTING ENGINE 1 | 0 | 19 |
| 2026-05-03 18:02:08 | STARTING ENGINE 2 | 0 | 19 |
| 2026-05-03 18:02:53 | TAXI TO THE RWY | 0 | 19 |
| 2026-05-03 18:03:25 | FLAP 50% | 0 | 23 |
| 2026-05-03 18:03:55 | CLIMBING | 107 | 48 |
| 2026-05-03 18:03:58 | CRUISE | 102 | 70 |
| 2026-05-03 18:04:01 | CLIMBING | 96 | 84 |
| 2026-05-03 18:04:05 | CRUISE | 93 | 136 |
| 2026-05-03 18:04:09 | CLIMBING | 103 | 136 |
| 2026-05-03 18:04:21 | GEAR UP | 106 | 423 |
| 2026-05-03 18:04:26 | FLAP 0% | 108 | 563 |
| 2026-05-03 18:04:54 | AP ENGAGED | 115 | 1433 |
| 2026-05-03 18:05:01 | CRUISE | 129 | 1565 |
| 2026-05-03 18:05:21 | LANDING | 180 | 1476 |
| 2026-05-03 18:05:40 | CLIMBING | 194 | 1367 |
| 2026-05-03 18:06:44 | CRUISE | 152 | 2980 |
| 2026-05-03 18:13:16 | DESCEND | 135 | 2965 |
| 2026-05-03 18:15:55 | FLAP 50% | 150 | 848 |
| 2026-05-03 18:16:06 | GEAR DOWN | 140 | 718 |
| 2026-05-03 18:17:05 | AP DISENGAGED | 110 | 83 |
| 2026-05-03 18:17:21 | LANDED AIRPORT [MYEF] | 88 | 34 |
| 2026-05-03 18:17:21 | LANDED - VS: -108 ft/min | 87 | 33 |
| 2026-05-03 18:17:43 | TAXI TO THE GATE | 29 | 27 |
| 2026-05-03 18:20:34 | AT THE GATE | 0 | 32 |
| 2026-05-03 18:20:42 | STOPPING ENGINE 1 | 0 | 32 |
| 2026-05-03 18:20:44 | STOPPING ENGINE 2 | 0 | 32 |
| 2026-05-03 18:20:51 | BCN LIGHTS OFF | 0 | 32 |
| 2026-05-03 18:20:52 | FLIGHT FINISHED | 0 | 32 |
| 2026-05-03 18:21:55 | NAV LIGHTS OFF | 0 | 32 |
| 2026-05-03 18:21:56 | TAXI LIGHTS OFF | 0 | 32 |
| 2026-05-03 18:21:56 | STB LIGHTS OFF | 0 | 32 |
| 2026-05-03 18:21:57 | LND LIGHTS OFF | 0 | 32 |
| 2026-05-03 18:01:40 | GOLD ACARS VERSION 3.3.7.0 | 0 | 0 |
| 2026-05-03 18:01:40 | BOARDING | 0 | 19 |
| 2026-05-03 18:01:44 | BCN LIGHTS ON | 0 | 19 |
| 2026-05-03 18:01:45 | NAV LIGHTS ON | 0 | 19 |
| 2026-05-03 18:01:47 | STB LIGHTS ON | 0 | 19 |
| 2026-05-03 18:01:47 | TAXI LIGHTS ON | 0 | 19 |
| 2026-05-03 18:01:48 | LND LIGHTS ON | 0 | 19 |
| 2026-05-03 18:01:57 | STARTING ENGINE 1 | 0 | 19 |
| 2026-05-03 18:02:08 | STARTING ENGINE 2 | 0 | 19 |
| 2026-05-03 18:02:53 | TAXI TO THE RWY | 0 | 19 |
| 2026-05-03 18:03:25 | FLAP 50% | 0 | 23 |
| 2026-05-03 18:03:55 | CLIMBING | 107 | 48 |
| 2026-05-03 18:03:58 | CRUISE | 102 | 70 |
| 2026-05-03 18:04:01 | CLIMBING | 96 | 84 |
| 2026-05-03 18:04:05 | CRUISE | 93 | 136 |
| 2026-05-03 18:04:09 | CLIMBING | 103 | 136 |
| 2026-05-03 18:04:21 | GEAR UP | 106 | 423 |
| 2026-05-03 18:04:26 | FLAP 0% | 108 | 563 |
| 2026-05-03 18:04:54 | AP ENGAGED | 115 | 1433 |
| 2026-05-03 18:05:01 | CRUISE | 129 | 1565 |
| 2026-05-03 18:05:21 | LANDING | 180 | 1476 |
| 2026-05-03 18:05:40 | CLIMBING | 194 | 1367 |
| 2026-05-03 18:06:44 | CRUISE | 152 | 2980 |
| 2026-05-03 18:13:16 | DESCEND | 135 | 2965 |
| 2026-05-03 18:15:55 | FLAP 50% | 150 | 848 |
| 2026-05-03 18:16:06 | GEAR DOWN | 140 | 718 |
| 2026-05-03 18:17:05 | AP DISENGAGED | 110 | 83 |
| 2026-05-03 18:17:21 | LANDED AIRPORT [MYEF] | 88 | 34 |
| 2026-05-03 18:17:21 | LANDED - VS: -108 ft/min | 87 | 33 |
| 2026-05-03 18:17:43 | TAXI TO THE GATE | 29 | 27 |
| 2026-05-03 18:20:34 | AT THE GATE | 0 | 32 |
| 2026-05-03 18:20:42 | STOPPING ENGINE 1 | 0 | 32 |
| 2026-05-03 18:20:44 | STOPPING ENGINE 2 | 0 | 32 |
| 2026-05-03 18:20:51 | BCN LIGHTS OFF | 0 | 32 |
| 2026-05-03 18:20:52 | FLIGHT FINISHED | 0 | 32 |
| 2026-05-03 18:21:55 | NAV LIGHTS OFF | 0 | 32 |
| 2026-05-03 18:21:56 | TAXI LIGHTS OFF | 0 | 32 |
| 2026-05-03 18:21:56 | STB LIGHTS OFF | 0 | 32 |
| 2026-05-03 18:21:57 | LND LIGHTS OFF | 0 | 32 |
| DATE | IAS | GS | ALTITUDE | FUEL USED | OAT | Flight Phase |
|---|---|---|---|---|---|---|
| 2026-05-03 18:02:59 | 7 | 13 | 22 | 0 | 27 | BOARDING |
| 2026-05-03 18:04:00 | 101 | 106 | 75 | 1 | 27 | TAXI TO THE RWY |
| 2026-05-03 18:05:01 | 122 | 124 | 1536 | 3 | 23 | CRUISE |
| 2026-05-03 18:06:01 | 171 | 170 | 1904 | 5 | 22 | CLIMBING |
| 2026-05-03 18:07:02 | 167 | 172 | 2993 | 7 | 20 | CLIMBING |
| 2026-05-03 18:08:02 | 189 | 193 | 3007 | 9 | 20 | CRUISE |
| 2026-05-03 18:09:04 | 190 | 195 | 3005 | 11 | 20 | CRUISE |
| 2026-05-03 18:10:04 | 192 | 195 | 3007 | 12 | 20 | CRUISE |
| 2026-05-03 18:11:06 | 184 | 187 | 3003 | 14 | 20 | CRUISE |
| 2026-05-03 18:12:06 | 142 | 144 | 2991 | 15 | 20 | CRUISE |
| 2026-05-03 18:13:07 | 134 | 138 | 2992 | 16 | 20 | CRUISE |
| 2026-05-03 18:14:07 | 148 | 152 | 2351 | 16 | 21 | CRUISE |
| 2026-05-03 18:15:09 | 159 | 162 | 1541 | 17 | 23 | DESCEND |
| 2026-05-03 18:16:09 | 139 | 140 | 693 | 17 | 26 | DESCEND |
| 2026-05-03 18:17:10 | 108 | 110 | 60 | 18 | 27 | DESCEND |
| 2026-05-03 18:18:10 | 0 | 12 | 27 | 18 | 27 | DESCEND |
| 2026-05-03 18:19:12 | 5 | 16 | 31 | 18 | 27 | TAXI TO THE GATE |
| 2026-05-03 18:20:12 | 0 | 11 | 32 | 18 | 27 | TAXI TO THE GATE |
| 2026-05-03 18:37:27 | 0 | 0 | 1 | 0 | 28 | TAXI TO THE GATE |